createdAt,value
2018-06-01T00:00:21.286Z,13.80
2018-06-01T00:02:48.989Z,13.90
2018-06-01T00:05:16.712Z,14.00
2018-06-01T00:07:44.422Z,14.00
2018-06-01T00:10:12.928Z,13.80
2018-06-01T00:12:40.621Z,13.80
2018-06-01T00:15:08.358Z,13.70
2018-06-01T00:17:36.817Z,13.50
2018-06-01T00:20:04.567Z,13.50
2018-06-01T00:22:32.268Z,13.50
2018-06-01T00:24:59.969Z,13.40
2018-06-01T00:27:28.039Z,13.40
2018-06-01T00:29:55.769Z,13.30
2018-06-01T00:32:24.248Z,13.50
2018-06-01T00:34:52.725Z,13.40
2018-06-01T00:37:21.190Z,13.30
2018-06-01T00:39:48.897Z,13.20
2018-06-01T00:42:16.605Z,13.30
2018-06-01T00:44:44.293Z,13.40
2018-06-01T00:47:12.035Z,13.30
2018-06-01T00:49:39.725Z,13.40
2018-06-01T00:52:08.200Z,13.40
2018-06-01T00:54:48.504Z,13.40
2018-06-01T00:57:16.228Z,13.30
2018-06-01T00:59:44.699Z,13.40
2018-06-01T01:02:12.393Z,13.40
2018-06-01T01:04:40.100Z,13.40
2018-06-01T01:07:07.796Z,13.30
2018-06-01T01:09:36.265Z,13.20
2018-06-01T01:12:04.014Z,13.20
2018-06-01T01:14:31.704Z,13.20
2018-06-01T01:17:00.185Z,13.20
2018-06-01T01:19:28.695Z,13.20
2018-06-01T01:21:56.453Z,13.10
2018-06-01T01:24:24.166Z,13.10
2018-06-01T01:26:51.853Z,13.20
2018-06-01T01:29:19.558Z,13.20
2018-06-01T01:31:49.572Z,13.20
2018-06-01T01:34:17.274Z,13.10
2018-06-01T01:36:44.970Z,13.10
2018-06-01T01:39:13.441Z,13.00
2018-06-01T01:41:41.925Z,13.00
2018-06-01T01:44:10.408Z,12.90
2018-06-01T01:46:38.889Z,12.90
2018-06-01T01:49:07.365Z,12.80
2018-06-01T01:51:35.137Z,12.80
2018-06-01T01:54:03.621Z,12.80
2018-06-01T01:56:32.097Z,12.80
2018-06-01T01:59:00.565Z,12.80
2018-06-01T02:01:28.281Z,12.80
2018-06-01T02:03:56.350Z,12.80
2018-06-01T02:06:24.144Z,12.70
2018-06-01T02:08:51.841Z,12.60
2018-06-01T02:11:20.313Z,12.30
2018-06-01T02:13:48.005Z,12.30
2018-06-01T02:16:15.707Z,12.30
2018-06-01T02:18:43.384Z,12.30
2018-06-01T02:21:11.098Z,12.30
2018-06-01T02:23:38.819Z,12.40
2018-06-01T02:26:06.542Z,12.40
2018-06-01T02:28:34.262Z,12.50
2018-06-01T02:31:02.725Z,12.70
2018-06-01T02:33:30.429Z,12.70
2018-06-01T02:35:58.271Z,12.80
2018-06-01T02:38:26.753Z,13.10
2018-06-01T02:40:55.245Z,13.20
2018-06-01T02:43:23.717Z,13.30
2018-06-01T02:45:52.193Z,13.30
2018-06-01T02:48:20.653Z,13.20
2018-06-01T02:50:48.336Z,13.20
2018-06-01T02:53:16.808Z,13.10
2018-06-01T02:55:44.546Z,13.10
2018-06-01T02:58:12.273Z,13.10
2018-06-01T03:00:40.009Z,13.00
2018-06-01T03:03:08.481Z,13.10
2018-06-01T03:05:36.182Z,13.10
2018-06-01T03:08:04.261Z,13.10
2018-06-01T03:10:31.962Z,13.00
2018-06-01T03:12:59.654Z,13.00
2018-06-01T03:15:28.109Z,13.10
2018-06-01T03:17:55.805Z,13.10
2018-06-01T03:20:26.324Z,13.00
2018-06-01T03:22:54.781Z,13.00
2018-06-01T03:25:22.466Z,13.00
2018-06-01T03:27:50.953Z,13.10
2018-06-01T03:30:19.441Z,13.20
2018-06-01T03:32:47.908Z,13.30
2018-06-01T03:35:16.389Z,13.30
2018-06-01T03:37:44.096Z,13.30
2018-06-01T03:40:12.328Z,13.20
2018-06-01T03:42:40.071Z,13.20
2018-06-01T03:45:07.758Z,13.20
2018-06-01T03:47:36.213Z,13.10
2018-06-01T03:50:04.001Z,13.10
2018-06-01T03:52:32.482Z,13.10
2018-06-01T03:55:00.968Z,13.10
2018-06-01T03:57:28.706Z,13.10
2018-06-01T03:59:56.599Z,13.20
2018-06-01T04:02:25.129Z,13.10
2018-06-01T04:04:52.846Z,13.10
2018-06-01T04:07:21.542Z,13.10
2018-06-01T04:09:50.049Z,12.80
2018-06-01T04:12:17.850Z,12.80
2018-06-01T04:14:45.549Z,12.90
2018-06-01T04:17:14.023Z,12.90
2018-06-01T04:19:41.719Z,12.90
2018-06-01T04:22:09.406Z,12.90
2018-06-01T04:24:37.113Z,12.90
2018-06-01T04:27:05.653Z,13.00
2018-06-01T04:29:33.328Z,13.00
2018-06-01T04:32:01.134Z,13.10
2018-06-01T04:34:29.596Z,13.10
2018-06-01T04:36:57.272Z,13.10
2018-06-01T04:39:25.001Z,13.10
2018-06-01T04:41:52.707Z,13.10
2018-06-01T04:44:20.440Z,13.20
2018-06-01T04:46:48.128Z,13.30
2018-06-01T04:49:16.622Z,13.40
2018-06-01T04:51:45.086Z,13.50
2018-06-01T04:54:13.527Z,13.50
2018-06-01T04:56:41.217Z,13.50
2018-06-01T04:59:09.699Z,13.60
2018-06-01T05:01:38.181Z,13.70
2018-06-01T05:04:05.917Z,13.70
2018-06-01T05:06:33.601Z,14.00
2018-06-01T05:09:01.364Z,14.10
2018-06-01T05:11:29.849Z,14.40
2018-06-01T05:13:57.553Z,14.40
2018-06-01T05:16:25.485Z,14.50
2018-06-01T05:18:53.942Z,14.60
2018-06-01T05:21:21.698Z,14.60
2018-06-01T05:23:49.417Z,14.60
2018-06-01T05:26:17.124Z,14.90
2018-06-01T05:28:44.899Z,14.90
2018-06-01T05:31:12.643Z,15.10
2018-06-01T05:33:40.342Z,15.20
2018-06-01T05:36:08.109Z,15.20
2018-06-01T05:38:35.883Z,15.10
2018-06-01T05:41:04.422Z,15.30
2018-06-01T05:43:32.876Z,15.30
2018-06-01T05:46:00.631Z,15.50
2018-06-01T05:48:29.079Z,15.60
2018-06-01T05:50:56.873Z,15.80
2018-06-01T05:53:24.574Z,15.90
2018-06-01T05:55:54.205Z,15.90
2018-06-01T05:58:21.909Z,16.00
2018-06-01T06:00:49.692Z,16.10
2018-06-01T06:03:17.430Z,16.20
2018-06-01T06:05:45.891Z,16.10
2018-06-01T06:08:13.804Z,16.10
2018-06-01T06:10:41.565Z,16.40
2018-06-01T06:13:09.327Z,16.50
2018-06-01T06:15:37.050Z,16.60
2018-06-01T06:18:04.818Z,16.80
2018-06-01T06:20:33.400Z,17.00
2018-06-01T06:23:01.876Z,17.10
2018-06-01T06:25:29.548Z,17.00
2018-06-01T06:27:58.061Z,17.20
2018-06-01T06:30:25.815Z,17.10
2018-06-01T06:32:53.521Z,17.30
2018-06-01T06:35:21.209Z,17.40
2018-06-01T06:37:48.963Z,17.40
2018-06-01T06:40:16.809Z,17.50
2018-06-01T06:42:44.576Z,17.40
2018-06-01T06:45:12.294Z,17.50
2018-06-01T06:47:40.040Z,17.40
2018-06-01T06:50:08.541Z,17.40
2018-06-01T06:52:36.636Z,17.40
2018-06-01T06:55:04.367Z,17.80
2018-06-01T06:57:32.089Z,17.70
2018-06-01T06:59:59.846Z,17.80
2018-06-01T07:02:27.557Z,18.10
2018-06-01T07:04:58.503Z,18.40
2018-06-01T07:07:26.279Z,18.40
2018-06-01T07:09:54.045Z,18.20
2018-06-01T07:12:21.910Z,17.90
2018-06-01T07:14:49.617Z,17.80
2018-06-01T07:17:17.384Z,17.90
2018-06-01T07:19:45.133Z,18.00
2018-06-01T07:22:12.844Z,18.30
2018-06-01T07:24:41.352Z,18.20
2018-06-01T07:27:09.083Z,18.20
2018-06-01T07:29:37.676Z,18.30
2018-06-01T07:32:06.197Z,18.20
2018-06-01T07:34:33.927Z,18.20
2018-06-01T07:37:01.661Z,18.70
2018-06-01T07:39:29.412Z,18.90
2018-06-01T07:41:58.545Z,19.20
2018-06-01T07:44:26.321Z,19.50
2018-06-01T07:46:54.065Z,19.70
2018-06-01T07:49:22.134Z,19.70
2018-06-01T07:51:51.018Z,19.40
2018-06-01T07:54:19.084Z,19.40
2018-06-01T07:56:47.232Z,19.40
2018-06-01T07:59:15.273Z,19.60
2018-06-01T08:01:43.864Z,19.60
2018-06-01T08:04:11.851Z,19.80
2018-06-01T08:06:39.814Z,20.10
2018-06-01T08:09:08.869Z,20.10
2018-06-01T08:11:36.844Z,20.10
2018-06-01T08:14:04.621Z,20.20
2018-06-01T08:16:32.995Z,20.50
2018-06-01T08:19:00.825Z,20.60
2018-06-01T08:21:28.534Z,20.80
2018-06-01T08:23:56.250Z,20.80
2018-06-01T08:26:24.932Z,21.20
2018-06-01T08:28:53.078Z,21.10
2018-06-01T08:31:20.780Z,21.10
2018-06-01T08:33:48.492Z,21.00
2018-06-01T08:36:16.232Z,21.60
2018-06-01T08:38:44.738Z,21.80
2018-06-01T08:41:12.497Z,21.80
2018-06-01T08:43:40.229Z,21.90
2018-06-01T08:46:08.725Z,22.30
2018-06-01T08:48:36.529Z,22.30
2018-06-01T08:51:05.199Z,22.10
2018-06-01T08:53:32.965Z,22.10
2018-06-01T08:56:00.688Z,22.10
2018-06-01T08:58:29.413Z,22.30
2018-06-01T09:00:57.501Z,22.20
2018-06-01T09:03:25.213Z,22.30
2018-06-01T09:05:53.689Z,22.10
2018-06-01T09:08:22.175Z,22.50
2018-06-01T09:10:50.717Z,22.70
2018-06-01T09:13:18.441Z,22.70
2018-06-01T09:15:46.181Z,22.80
2018-06-01T09:18:14.830Z,22.40
2018-06-01T09:20:44.641Z,22.40
2018-06-01T09:23:12.352Z,22.60
2018-06-01T09:25:40.353Z,22.50
2018-06-01T09:28:08.104Z,22.80
2018-06-01T09:30:35.860Z,22.70
2018-06-01T09:33:03.584Z,23.10
2018-06-01T09:35:31.276Z,23.20
2018-06-01T09:37:59.741Z,23.30
2018-06-01T09:40:28.224Z,23.70
2018-06-01T09:42:57.029Z,23.80
2018-06-01T09:45:25.133Z,23.80
2018-06-01T09:47:52.956Z,24.00
2018-06-01T09:50:21.472Z,24.10
2018-06-01T09:52:49.427Z,24.00
2018-06-01T09:55:17.416Z,24.00
2018-06-01T09:57:45.159Z,24.50
2018-06-01T10:00:12.983Z,24.80
2018-06-01T10:02:40.773Z,24.50
2018-06-01T10:05:08.484Z,24.40
2018-06-01T10:07:36.173Z,23.80
2018-06-01T10:10:09.505Z,24.30
2018-06-01T10:12:37.228Z,24.10
2018-06-01T10:15:05.194Z,23.50
2018-06-01T10:17:32.909Z,23.10
2018-06-01T10:20:00.648Z,22.80
2018-06-01T10:22:29.116Z,23.90
2018-06-01T10:24:56.849Z,23.80
2018-06-01T10:27:24.561Z,24.40
2018-06-01T10:29:52.312Z,25.00
2018-06-01T10:32:20.016Z,25.10
2018-06-01T10:34:47.722Z,25.10
2018-06-01T10:37:15.605Z,25.40
2018-06-01T10:39:43.318Z,25.90
2018-06-01T10:42:11.031Z,26.00
2018-06-01T10:44:38.760Z,25.60
2018-06-01T10:47:06.531Z,25.60
2018-06-01T10:49:34.271Z,26.10
2018-06-01T10:52:02.014Z,26.90
2018-06-01T10:54:29.925Z,27.20
2018-06-01T10:56:57.639Z,26.60
2018-06-01T10:59:25.390Z,27.30
2018-06-01T11:01:53.903Z,26.80
2018-06-01T11:04:21.629Z,26.80
2018-06-01T11:06:49.386Z,27.20
2018-06-01T11:09:17.150Z,26.90
2018-06-01T11:11:45.721Z,26.80
2018-06-01T11:14:13.441Z,26.80
2018-06-01T11:16:41.262Z,27.20
2018-06-01T11:19:08.973Z,26.20
2018-06-01T11:21:36.785Z,25.30
2018-06-01T11:24:04.487Z,24.50
2018-06-01T11:26:32.227Z,24.30
2018-06-01T11:29:00.723Z,24.50
2018-06-01T11:31:28.517Z,24.50
2018-06-01T11:33:56.205Z,24.40
2018-06-01T11:36:23.938Z,24.10
2018-06-01T11:38:51.732Z,23.80
2018-06-01T11:41:19.825Z,23.50
2018-06-01T11:43:47.561Z,23.60
2018-06-01T11:46:15.257Z,23.80
2018-06-01T11:48:42.973Z,24.30
2018-06-01T11:51:10.711Z,25.40
2018-06-01T11:53:39.424Z,26.30
2018-06-01T11:56:07.156Z,26.30
2018-06-01T11:58:34.864Z,26.70
2018-06-01T12:01:02.803Z,26.70
2018-06-01T12:03:30.504Z,27.40
2018-06-01T12:05:58.200Z,27.40
2018-06-01T12:08:26.714Z,27.10
2018-06-01T12:10:54.641Z,27.10
2018-06-01T12:13:22.381Z,27.50
2018-06-01T12:15:50.062Z,27.70
2018-06-01T12:18:17.753Z,27.90
2018-06-01T12:20:45.570Z,28.30
2018-06-01T12:23:13.358Z,28.20
2018-06-01T12:25:41.102Z,28.20
2018-06-01T12:28:17.700Z,28.30
2018-06-01T12:30:45.489Z,28.30
2018-06-01T12:33:13.307Z,27.70
2018-06-01T12:35:41.082Z,27.30
2018-06-01T12:38:08.827Z,27.20
2018-06-01T12:40:36.619Z,26.70
2018-06-01T12:43:04.352Z,25.80
2018-06-01T12:45:33.007Z,25.10
2018-06-01T12:48:00.812Z,25.10
2018-06-01T12:50:29.570Z,25.10
2018-06-01T12:52:57.329Z,25.80
2018-06-01T12:55:25.025Z,25.80
2018-06-01T12:57:52.752Z,25.60
2018-06-01T13:00:20.521Z,25.40
2018-06-01T13:02:48.269Z,25.60
2018-06-01T13:05:16.004Z,25.60
2018-06-01T13:07:43.712Z,26.60
2018-06-01T13:10:11.435Z,27.40
2018-06-01T13:12:39.932Z,28.00
2018-06-01T13:15:07.676Z,27.90
2018-06-01T13:17:35.923Z,28.30
2018-06-01T13:20:03.733Z,29.20
2018-06-01T13:22:32.203Z,30.10
2018-06-01T13:25:00.936Z,30.10
2018-06-01T13:27:28.632Z,30.00
2018-06-01T13:29:56.377Z,30.80
2018-06-01T13:32:24.078Z,31.30
2018-06-01T13:34:52.573Z,30.20
2018-06-01T13:37:21.151Z,30.40
2018-06-01T13:39:49.649Z,29.80
2018-06-01T13:42:17.360Z,29.70
2018-06-01T13:44:45.057Z,28.30
2018-06-01T13:47:12.794Z,27.40
2018-06-01T13:49:40.516Z,27.00
2018-06-01T13:52:08.257Z,27.20
2018-06-01T13:54:37.037Z,29.50
2018-06-01T13:57:05.613Z,30.00
2018-06-01T13:59:33.317Z,30.00
2018-06-01T14:02:01.056Z,30.60
2018-06-01T14:04:29.548Z,30.90
2018-06-01T14:06:57.281Z,30.90
2018-06-01T14:09:25.050Z,29.40
2018-06-01T14:11:52.761Z,29.60
2018-06-01T14:14:20.510Z,30.00
2018-06-01T14:16:48.187Z,30.70
2018-06-01T14:19:15.960Z,31.70
2018-06-01T14:21:44.065Z,32.30
2018-06-01T14:24:11.804Z,31.20
2018-06-01T14:26:39.598Z,30.10
2018-06-01T14:29:07.512Z,29.00
2018-06-01T14:31:36.695Z,28.20
2018-06-01T14:34:04.424Z,27.90
2018-06-01T14:36:32.229Z,28.20
2018-06-01T14:38:59.968Z,28.10
2018-06-01T14:41:28.637Z,26.90
2018-06-01T14:43:56.332Z,26.80
2018-06-01T14:46:24.109Z,26.30
2018-06-01T14:48:51.847Z,25.70
2018-06-01T14:51:20.414Z,28.70
2018-06-01T14:53:48.228Z,28.60
2018-06-01T14:56:16.001Z,29.60
2018-06-01T14:58:43.784Z,31.10
2018-06-01T15:01:11.482Z,31.60
2018-06-01T15:03:40.001Z,32.60
2018-06-01T15:06:07.721Z,32.60
2018-06-01T15:08:35.501Z,32.70
2018-06-01T15:11:03.330Z,32.60
2018-06-01T15:13:31.165Z,33.10
2018-06-01T15:15:58.948Z,33.50
2018-06-01T15:18:26.678Z,33.70
2018-06-01T15:20:54.452Z,33.40
2018-06-01T15:23:22.174Z,33.40
2018-06-01T15:25:50.325Z,33.20
2018-06-01T15:28:18.041Z,33.10
2018-06-01T15:30:45.863Z,32.80
2018-06-01T15:33:13.660Z,32.30
2018-06-01T15:35:42.114Z,32.40
2018-06-01T15:38:09.813Z,32.30
2018-06-01T15:40:37.642Z,32.70
2018-06-01T15:43:05.414Z,33.60
2018-06-01T15:45:33.198Z,33.30
2018-06-01T15:48:01.698Z,32.60
2018-06-01T15:50:29.458Z,32.50
2018-06-01T15:52:57.233Z,32.30
2018-06-01T15:55:24.998Z,32.60
2018-06-01T15:57:52.761Z,33.50
2018-06-01T16:00:20.533Z,32.80
2018-06-01T16:02:48.293Z,32.70
2018-06-01T16:05:16.053Z,32.50
2018-06-01T16:07:43.825Z,33.00
2018-06-01T16:10:11.585Z,32.80
2018-06-01T16:12:39.387Z,32.40
2018-06-01T16:15:07.089Z,32.60
2018-06-01T16:17:34.871Z,33.50
2018-06-01T16:20:03.693Z,33.30
2018-06-01T16:22:31.458Z,33.00
2018-06-01T16:24:59.181Z,31.70
2018-06-01T16:27:26.930Z,31.10
2018-06-01T16:29:55.843Z,29.70
2018-06-01T16:32:23.626Z,29.70
2018-06-01T16:34:51.414Z,29.00
2018-06-01T16:37:19.219Z,28.10
2018-06-01T16:39:47.760Z,26.90
2018-06-01T16:42:15.553Z,26.80
2018-06-01T16:44:44.074Z,26.00
2018-06-01T16:47:11.840Z,25.90
2018-06-01T16:49:39.642Z,25.60
2018-06-01T16:52:07.487Z,25.30
2018-06-01T16:54:35.282Z,24.80
2018-06-01T16:57:03.033Z,24.60
2018-06-01T16:59:30.796Z,24.50
2018-06-01T17:01:58.860Z,24.40
2018-06-01T17:04:26.660Z,24.10
2018-06-01T17:06:55.177Z,23.60
2018-06-01T17:09:22.921Z,23.60
2018-06-01T17:11:51.506Z,23.50
2018-06-01T17:14:19.254Z,23.50
2018-06-01T17:16:47.788Z,23.50
2018-06-01T17:19:15.521Z,23.40
2018-06-01T17:21:43.305Z,23.40
2018-06-01T17:24:11.041Z,23.30
2018-06-01T17:26:39.513Z,23.20
2018-06-01T17:29:08.041Z,23.10
2018-06-01T17:31:36.115Z,23.10
2018-06-01T17:34:03.892Z,23.10
2018-06-01T17:36:31.652Z,23.00
2018-06-01T17:38:59.450Z,23.00
2018-06-01T17:41:28.035Z,22.80
2018-06-01T17:43:55.787Z,22.70
2018-06-01T17:46:23.564Z,22.70
2018-06-01T17:48:52.117Z,22.70
2018-06-01T17:51:19.830Z,22.60
2018-06-01T17:53:47.594Z,22.60
2018-06-01T17:56:15.333Z,22.60
2018-06-01T17:58:43.087Z,22.50
2018-06-01T18:01:10.881Z,22.60
2018-06-01T18:03:39.371Z,22.40
2018-06-01T18:06:08.224Z,22.30
2018-06-01T18:08:35.958Z,22.30
2018-06-01T18:11:03.797Z,22.30
2018-06-01T18:13:31.551Z,22.20
2018-06-01T18:16:00.035Z,22.10
2018-06-01T18:18:27.810Z,22.00
2018-06-01T18:20:55.590Z,21.90
2018-06-01T18:23:23.337Z,21.90
2018-06-01T18:25:51.210Z,21.70
2018-06-01T18:28:18.969Z,21.60
2018-06-01T18:30:46.736Z,21.50
2018-06-01T18:33:14.473Z,21.40
2018-06-01T18:35:42.281Z,21.30
2018-06-01T18:38:10.061Z,21.20
2018-06-01T18:40:37.789Z,21.10
2018-06-01T18:43:05.529Z,21.00
2018-06-01T18:45:33.285Z,20.90
2018-06-01T18:48:01.002Z,20.80
2018-06-01T18:50:28.726Z,20.80
2018-06-01T18:52:57.218Z,20.50
2018-06-01T18:55:25.690Z,20.50
2018-06-01T18:57:54.381Z,20.30
2018-06-01T19:00:22.876Z,20.30
2018-06-01T19:02:50.632Z,20.30
2018-06-01T19:05:18.349Z,20.30
2018-06-01T19:07:47.232Z,20.20
2018-06-01T19:10:15.314Z,20.20
2018-06-01T19:12:43.078Z,20.10
2018-06-01T19:15:10.821Z,20.00
2018-06-01T19:17:38.595Z,19.80
2018-06-01T19:20:06.393Z,19.70
2018-06-01T19:22:34.948Z,19.60
2018-06-01T19:25:02.690Z,19.60
2018-06-01T19:27:30.653Z,19.60
2018-06-01T19:29:58.558Z,19.60
2018-06-01T19:32:26.287Z,19.60
2018-06-01T19:34:54.034Z,19.60
2018-06-01T19:37:21.761Z,19.40
2018-06-01T19:39:49.499Z,19.30
2018-06-01T19:42:17.218Z,19.30
2018-06-01T19:44:44.952Z,19.40
2018-06-01T19:47:12.703Z,19.30
2018-06-01T19:49:40.428Z,19.20
2018-06-01T19:52:08.163Z,19.10
2018-06-01T19:54:36.661Z,19.10
2018-06-01T19:57:04.389Z,19.10
2018-06-01T19:59:32.180Z,19.00
2018-06-01T20:02:00.056Z,19.00
2018-06-01T20:04:27.792Z,19.20
2018-06-01T20:06:55.528Z,19.40
2018-06-01T20:09:23.222Z,19.30
2018-06-01T20:11:51.745Z,19.30
2018-06-01T20:14:19.473Z,19.30
2018-06-01T20:16:47.993Z,19.20
2018-06-01T20:19:15.742Z,19.10
2018-06-01T20:21:43.465Z,19.10
2018-06-01T20:24:11.215Z,19.20
2018-06-01T20:26:38.940Z,19.00
2018-06-01T20:29:06.704Z,19.10
2018-06-01T20:31:35.387Z,19.00
2018-06-01T20:34:03.145Z,18.80
2018-06-01T20:36:30.886Z,18.80
2018-06-01T20:38:59.462Z,18.70
2018-06-01T20:41:27.280Z,18.60
2018-06-01T20:43:54.996Z,18.60
2018-06-01T20:46:23.548Z,18.60
2018-06-01T20:48:51.241Z,18.60
2018-06-01T20:51:19.726Z,18.70
2018-06-01T20:53:48.173Z,18.70
2018-06-01T20:56:15.860Z,18.60
2018-06-01T20:58:43.543Z,18.50
2018-06-01T21:01:12.010Z,18.60
2018-06-01T21:03:40.481Z,18.70
2018-06-01T21:06:08.221Z,18.60
2018-06-01T21:08:35.913Z,18.80
2018-06-01T21:11:04.396Z,18.60
2018-06-01T21:13:32.852Z,18.20
2018-06-01T21:16:00.538Z,18.10
2018-06-01T21:18:29.024Z,17.50
2018-06-01T21:20:57.501Z,17.30
2018-06-01T21:23:25.957Z,17.20
2018-06-01T21:25:53.645Z,17.20
2018-06-01T21:28:22.096Z,17.30
2018-06-01T21:30:49.789Z,17.30
2018-06-01T21:33:18.276Z,17.20
2018-06-01T21:35:46.725Z,17.20
2018-06-01T21:38:14.417Z,17.10
2018-06-01T21:40:42.891Z,17.00
2018-06-01T21:43:10.581Z,17.00
2018-06-01T21:45:38.289Z,17.10
2018-06-01T21:48:05.981Z,16.90
2018-06-01T21:50:34.774Z,17.00
2018-06-01T21:53:03.250Z,16.90
2018-06-01T21:55:30.936Z,16.90
2018-06-01T21:57:58.645Z,17.00
2018-06-01T22:00:26.341Z,16.90
2018-06-01T22:02:54.812Z,16.90
2018-06-01T22:05:22.514Z,16.80
2018-06-01T22:07:50.420Z,16.70
2018-06-01T22:10:19.264Z,16.70
2018-06-01T22:12:46.967Z,16.60
2018-06-01T22:15:14.696Z,16.50
2018-06-01T22:17:42.393Z,16.30
2018-06-01T22:20:10.096Z,16.30
2018-06-01T22:22:38.946Z,16.50
2018-06-01T22:25:06.709Z,16.40
2018-06-01T22:27:34.482Z,16.60
2018-06-01T22:30:02.178Z,16.60
2018-06-01T22:32:30.649Z,16.70
2018-06-01T22:34:59.126Z,16.70
2018-06-01T22:37:26.828Z,16.70
2018-06-01T22:39:54.561Z,16.70
2018-06-01T22:42:23.091Z,16.80
2018-06-01T22:44:51.048Z,16.80
2018-06-01T22:47:18.765Z,17.10
2018-06-01T22:49:46.453Z,17.10
2018-06-01T22:52:14.921Z,16.70
2018-06-01T22:54:43.393Z,16.60
2018-06-01T22:57:11.088Z,16.60
2018-06-01T22:59:38.790Z,16.50
2018-06-01T23:02:07.509Z,16.30
2018-06-01T23:04:35.201Z,16.30
2018-06-01T23:07:02.909Z,16.20
2018-06-01T23:09:30.610Z,16.20
2018-06-01T23:11:59.181Z,16.00
2018-06-01T23:14:26.997Z,15.90
2018-06-01T23:16:54.689Z,15.90
2018-06-01T23:19:22.372Z,15.90
2018-06-01T23:21:50.104Z,15.80
2018-06-01T23:24:17.805Z,15.80
2018-06-01T23:26:45.693Z,15.70
2018-06-01T23:29:13.425Z,15.60
2018-06-01T23:31:41.122Z,15.60
2018-06-01T23:34:08.817Z,15.70
2018-06-01T23:36:36.501Z,15.60
2018-06-01T23:39:04.290Z,15.60
2018-06-01T23:41:32.764Z,15.70
2018-06-01T23:44:01.237Z,15.60
2018-06-01T23:46:28.970Z,15.60
2018-06-01T23:48:56.681Z,15.50
2018-06-01T23:51:25.158Z,15.60
2018-06-01T23:53:53.629Z,15.60
2018-06-01T23:56:21.336Z,15.60
2018-06-01T23:58:49.033Z,15.60
